Aeroporto :
LOGIN :

Iscrizione | Disclaimer

   EN    FR    IT 

 










Sommario :    VFR   VFR Marginale   IFR   IFR Intensivo   IFR Molto Intensivo
Visibilità : 
Base nubi : 
>= 8 km
>= 3000ft
5 / 8 km
1000 / 3000 ft
1500m / 5 km
500 / 1000 ft
800 / 1500m
200 / 500 ft
< 800m
< 200 ft
Simboli :   Temporali  Nebbia  Neve Forte  Precipitazioni Forti  Vento > 20 kt
SIGMETs :   Varie  Temporali  Ghiacco  Turbolenza  Onda orograficha  Ceneri Vulcaniche







- Altitudine del aeroporto : 288 ft
- Codice IATA : BZZ


EGVN - RAF Brize Norton

ULTIMO METAR :
  • 161750Z 22010KT 9999 FEW030 BKN040 17/09 Q1016 NOSIG RMK BLU BLU

METARs OBSOLETI :
  • 161720Z 22011KT 9999 FEW030 SCT038 17/10 Q1016 NOSIG RMK BLU BLU
  • 161650Z 22011KT 9999 SCT030 SCT070 18/11 Q1016 NOSIG
  • 161620Z 23011KT 9999 FEW025 BKN042 18/11 Q1015 NOSIG RMK BLU BLU
  • 161550Z 23011G22KT 9999 FEW028 SCT034 18/11 Q1015 NOSIG RMK BLU BLU

TAF TAF EGVN
Valido dal 16 a 18 ore il 17 a 18 ore UTC


161633Z 1618/1718 20011KT 9999 SCT030
PROB30
TEMPO 1618/1622 SCT022
PROB30
TEMPO 1622/1707 SCT008
PROB30
TEMPO 1707/1709 SCT020
Nessun NOTAM noto per questo aeroporto.



MetMap, La meteo Aeronautica in un colpo d'occhio ! - Copyright ORBIFLY Dicembre 2007 - Disclaimer

ORBIFLY MET'MAP TEAM :

Programmazione e sviluppo : Alexandra Zaïnal
Concezione e sviluppo : Baudouin d'Aumeries
Co-Programmazione e sviluppo : Marc-Olivier Méhu
Supporto tecnico e logistico : Manuel Goepfert
Aiuto per la traduzione : Arnaldo La Scala

Contatto : metmap@orbifly.com




FONTI E CREDITI :

   NOAA